createdAt,value
2022-11-05T00:02:08.741Z,98426.17
2022-11-05T00:04:58.266Z,98428.66
2022-11-05T00:07:54.031Z,98432.02
2022-11-05T00:10:29.611Z,98440.77
2022-11-05T00:13:19.627Z,98437.10
2022-11-05T00:16:08.567Z,98432.04
2022-11-05T00:18:40.593Z,98433.79
2022-11-05T00:21:26.433Z,98432.88
2022-11-05T00:24:18.164Z,98434.41
2022-11-05T00:26:52.199Z,98442.56
2022-11-05T00:29:26.015Z,98436.59
2022-11-05T00:31:57.757Z,98439.73
2022-11-05T00:34:29.566Z,98442.19
2022-11-05T00:37:01.336Z,98453.23
2022-11-05T00:39:33.064Z,98453.61
2022-11-05T00:42:22.790Z,98453.83
2022-11-05T00:45:01.973Z,98454.88
2022-11-05T00:47:52.521Z,98459.70
2022-11-05T00:50:24.838Z,98459.30
2022-11-05T00:52:59.609Z,98458.86
2022-11-05T00:55:34.715Z,98458.13
2022-11-05T00:58:08.382Z,98455.33
2022-11-05T01:00:42.386Z,98459.18
2022-11-05T01:03:15.945Z,98460.08
2022-11-05T01:05:49.741Z,98462.94
2022-11-05T01:08:23.207Z,98469.42
2022-11-05T01:10:56.467Z,98470.63
2022-11-05T01:13:30.963Z,98467.11
2022-11-05T01:16:09.315Z,98469.68
2022-11-05T01:18:41.259Z,98465.13
2022-11-05T01:21:16.931Z,98461.26
2022-11-05T01:23:48.728Z,98460.20
2022-11-05T01:26:20.620Z,98464.05
2022-11-05T01:28:54.551Z,98460.70
2022-11-05T01:31:27.031Z,98461.20
2022-11-05T01:34:01.103Z,98458.04
2022-11-05T01:36:33.453Z,98456.70
2022-11-05T01:39:06.447Z,98452.88
2022-11-05T01:41:38.187Z,98451.20
2022-11-05T01:44:40.423Z,98453.15
2022-11-05T01:47:21.359Z,98456.45
2022-11-05T01:49:53.330Z,98454.31
2022-11-05T01:52:28.029Z,98455.88
2022-11-05T01:55:00.056Z,98457.26
2022-11-05T01:57:34.008Z,98454.98
2022-11-05T02:00:06.790Z,98457.77
2022-11-05T02:02:45.516Z,98455.14
2022-11-05T02:05:18.187Z,98458.92
2022-11-05T02:07:50.743Z,98461.34
2022-11-05T02:10:24.197Z,98459.20
2022-11-05T02:12:56.797Z,98461.14
2022-11-05T02:15:38.635Z,98459.12
2022-11-05T02:18:21.345Z,98460.58
2022-11-05T02:21:04.249Z,98462.64
2022-11-05T02:24:03.721Z,98458.78
2022-11-05T02:27:05.801Z,98451.09
2022-11-05T02:30:04.273Z,98450.59
2022-11-05T02:32:59.064Z,98450.92
2022-11-05T02:35:47.390Z,98452.83
2022-11-05T02:38:34.662Z,98451.41
2022-11-05T02:41:12.622Z,98452.46
2022-11-05T02:43:56.282Z,98456.31
2022-11-05T02:46:41.874Z,98464.70
2022-11-05T02:49:27.486Z,98468.18
2022-11-05T02:52:02.630Z,98470.75
2022-11-05T02:54:41.038Z,98474.09
2022-11-05T02:57:13.028Z,98479.73
2022-11-05T02:59:44.719Z,98487.33
2022-11-05T03:02:17.271Z,98488.80
2022-11-05T03:04:49.204Z,98489.02
2022-11-05T03:07:37.206Z,98494.78
2022-11-05T03:10:23.885Z,98498.05
2022-11-05T03:13:05.561Z,98505.69
2022-11-05T03:15:55.687Z,98507.77
2022-11-05T03:18:34.613Z,98515.11
2022-11-05T03:21:11.008Z,98511.97
2022-11-05T03:23:50.575Z,98506.59
2022-11-05T03:26:28.041Z,98502.05
2022-11-05T03:29:06.709Z,98498.02
2022-11-05T03:31:40.497Z,98497.48
2022-11-05T03:34:13.829Z,98499.55
2022-11-05T03:36:49.788Z,98505.52
2022-11-05T03:39:24.506Z,98499.73
2022-11-05T03:41:58.314Z,98502.38
2022-11-05T03:44:37.583Z,98496.48
2022-11-05T03:47:14.891Z,98498.95
2022-11-05T03:49:56.816Z,98499.96
2022-11-05T03:52:34.878Z,98500.81
2022-11-05T03:55:07.998Z,98506.73
2022-11-05T03:57:44.211Z,98508.83
2022-11-05T04:00:16.966Z,98508.65
2022-11-05T04:02:49.017Z,98511.10
2022-11-05T04:05:21.549Z,98512.55
2022-11-05T04:08:19.359Z,98510.52
2022-11-05T04:11:11.173Z,98512.62
2022-11-05T04:13:43.036Z,98513.85
2022-11-05T04:16:32.104Z,98518.20
2022-11-05T04:19:04.102Z,98521.98
2022-11-05T04:22:04.978Z,98521.41
2022-11-05T04:24:36.940Z,98521.70
2022-11-05T04:27:11.336Z,98523.19
2022-11-05T04:30:00.420Z,98527.85
2022-11-05T04:32:32.283Z,98521.23
2022-11-05T04:35:04.110Z,98521.28
2022-11-05T04:37:35.811Z,98527.65
2022-11-05T04:40:09.168Z,98533.69
2022-11-05T04:42:41.113Z,98535.38
2022-11-05T04:45:12.916Z,98540.42
2022-11-05T04:47:45.126Z,98542.35
2022-11-05T04:50:17.064Z,98539.64
2022-11-05T04:52:49.632Z,98548.05
2022-11-05T04:55:21.985Z,98550.30
2022-11-05T04:57:54.961Z,98551.34
2022-11-05T05:00:27.626Z,98552.56
2022-11-05T05:02:59.617Z,98550.17
2022-11-05T05:05:32.143Z,98549.31
2022-11-05T05:08:05.943Z,98552.13
2022-11-05T05:10:37.720Z,98556.34
2022-11-05T05:13:10.175Z,98559.34
2022-11-05T05:15:42.402Z,98548.36
2022-11-05T05:18:14.267Z,98555.04
2022-11-05T05:21:03.781Z,98558.21
2022-11-05T05:23:35.560Z,98566.64
2022-11-05T05:26:07.738Z,98571.41
2022-11-05T05:28:39.643Z,98570.94
2022-11-05T05:31:11.361Z,98574.65
2022-11-05T05:33:43.305Z,98582.53
2022-11-05T05:36:15.205Z,98586.89
2022-11-05T05:38:47.089Z,98597.64
2022-11-05T05:41:19.421Z,98599.47
2022-11-05T05:43:51.968Z,98598.23
2022-11-05T05:46:23.842Z,98594.87
2022-11-05T05:48:55.719Z,98594.31
2022-11-05T05:51:27.646Z,98593.52
2022-11-05T05:53:59.697Z,98589.83
2022-11-05T05:56:31.867Z,98592.92
2022-11-05T05:59:03.764Z,98605.84
2022-11-05T06:01:35.984Z,98611.26
2022-11-05T06:04:08.314Z,98618.23
2022-11-05T06:06:40.155Z,98626.47
2022-11-05T06:09:12.144Z,98627.91
2022-11-05T06:11:44.146Z,98627.32
2022-11-05T06:14:16.740Z,98623.22
2022-11-05T06:16:48.470Z,98621.02
2022-11-05T06:19:20.385Z,98628.27
2022-11-05T06:21:52.162Z,98638.21
2022-11-05T06:24:24.333Z,98639.77
2022-11-05T06:26:56.064Z,98640.41
2022-11-05T06:29:27.933Z,98638.48
2022-11-05T06:31:59.946Z,98638.42
2022-11-05T06:34:31.868Z,98637.48
2022-11-05T06:37:03.792Z,98639.42
2022-11-05T06:39:35.733Z,98640.17
2022-11-05T06:42:23.109Z,98644.49
2022-11-05T06:44:54.913Z,98648.02
2022-11-05T06:47:26.800Z,98651.38
2022-11-05T06:49:58.895Z,98657.84
2022-11-05T06:52:31.408Z,98666.81
2022-11-05T06:55:03.499Z,98667.21
2022-11-05T06:57:38.139Z,98673.35
2022-11-05T07:00:12.026Z,98668.80
2022-11-05T07:02:43.930Z,98660.25
2022-11-05T07:05:17.104Z,98654.54
2022-11-05T07:07:48.997Z,98653.19
2022-11-05T07:10:21.274Z,98666.14
2022-11-05T07:12:53.058Z,98676.58
2022-11-05T07:15:25.560Z,98671.30
2022-11-05T07:18:01.423Z,98671.11
2022-11-05T07:20:34.449Z,98675.09
2022-11-05T07:23:08.748Z,98675.36
2022-11-05T07:25:41.833Z,98676.17
2022-11-05T07:28:14.702Z,98682.04
2022-11-05T07:30:48.468Z,98684.20
2022-11-05T07:33:20.406Z,98690.23
2022-11-05T07:35:52.156Z,98694.68
2022-11-05T07:38:23.967Z,98705.70
2022-11-05T07:40:55.871Z,98708.36
2022-11-05T07:43:27.753Z,98716.91
2022-11-05T07:45:59.529Z,98720.21
2022-11-05T07:48:31.739Z,98725.52
2022-11-05T07:51:03.522Z,98724.19
2022-11-05T07:53:35.557Z,98726.27
2022-11-05T07:56:08.633Z,98722.95
2022-11-05T07:58:40.475Z,98719.69
2022-11-05T08:01:12.526Z,98717.39
2022-11-05T08:03:44.637Z,98717.30
2022-11-05T08:06:16.482Z,98720.38
2022-11-05T08:08:48.405Z,98721.82
2022-11-05T08:11:20.216Z,98719.64
2022-11-05T08:13:52.106Z,98714.11
2022-11-05T08:16:23.866Z,98711.50
2022-11-05T08:18:57.778Z,98708.89
2022-11-05T08:21:29.800Z,98706.30
2022-11-05T08:24:01.682Z,98709.80
2022-11-05T08:26:33.530Z,98706.59
2022-11-05T08:29:05.283Z,98711.17
2022-11-05T08:31:37.200Z,98713.69
2022-11-05T08:34:09.200Z,98720.44
2022-11-05T08:36:43.300Z,98721.02
2022-11-05T08:39:17.069Z,98728.23
2022-11-05T08:41:49.124Z,98723.34
2022-11-05T08:44:21.039Z,98726.32
2022-11-05T08:46:53.103Z,98732.20
2022-11-05T08:49:25.062Z,98734.92
2022-11-05T08:51:56.803Z,98741.91
2022-11-05T08:54:28.978Z,98744.63
2022-11-05T08:57:00.821Z,98741.61
2022-11-05T08:59:32.729Z,98747.96
2022-11-05T09:02:04.795Z,98746.60
2022-11-05T09:04:36.650Z,98742.95
2022-11-05T09:07:09.011Z,98748.23
2022-11-05T09:09:40.940Z,98749.84
2022-11-05T09:12:13.366Z,98753.06
2022-11-05T09:14:45.263Z,98756.90
2022-11-05T09:17:22.049Z,98757.05
2022-11-05T09:19:54.010Z,98760.79
2022-11-05T09:22:25.930Z,98761.76
2022-11-05T09:24:57.866Z,98764.77
2022-11-05T09:27:29.901Z,98768.93
2022-11-05T09:30:01.942Z,98771.91
2022-11-05T09:32:34.916Z,98771.83
2022-11-05T09:35:08.382Z,98776.87
2022-11-05T09:37:40.433Z,98779.31
2022-11-05T09:40:16.779Z,98776.63
2022-11-05T09:42:52.476Z,98779.40
2022-11-05T09:45:28.515Z,98786.88
2022-11-05T09:48:06.367Z,98787.77
2022-11-05T09:50:42.034Z,98786.29
2022-11-05T09:53:16.742Z,98783.39
2022-11-05T09:55:52.649Z,98780.88
2022-11-05T09:58:32.636Z,98785.70
2022-11-05T10:01:07.561Z,98788.16
2022-11-05T10:03:46.900Z,98791.81
2022-11-05T10:06:22.868Z,98794.91
2022-11-05T10:09:02.647Z,98798.68
2022-11-05T10:11:39.881Z,98802.67
2022-11-05T10:14:19.374Z,98809.66
2022-11-05T10:16:56.115Z,98807.28
2022-11-05T10:19:36.940Z,98808.62
2022-11-05T10:22:14.000Z,98803.45
2022-11-05T10:24:47.509Z,98809.33
2022-11-05T10:27:23.348Z,98816.22
2022-11-05T10:29:55.719Z,98818.34
2022-11-05T10:32:32.128Z,98818.73
2022-11-05T10:35:07.923Z,98818.98
2022-11-05T10:37:41.171Z,98824.27
2022-11-05T10:40:20.965Z,98829.91
2022-11-05T10:43:02.057Z,98831.67
2022-11-05T10:45:41.556Z,98833.98
2022-11-05T10:48:30.890Z,98837.66
2022-11-05T10:51:03.885Z,98840.89
2022-11-05T10:53:39.601Z,98841.50
2022-11-05T10:56:32.258Z,98838.42
2022-11-05T10:59:09.358Z,98839.83
2022-11-05T11:01:43.973Z,98839.97
2022-11-05T11:04:24.999Z,98840.64
2022-11-05T11:06:58.483Z,98842.89
2022-11-05T11:09:32.720Z,98845.16
2022-11-05T11:12:13.523Z,98843.72
2022-11-05T11:15:00.605Z,98848.36
2022-11-05T11:17:33.813Z,98851.02
2022-11-05T11:20:27.304Z,98851.98
2022-11-05T11:23:13.047Z,98849.84
2022-11-05T11:25:51.609Z,98850.38
2022-11-05T11:28:24.931Z,98853.67
2022-11-05T11:31:04.682Z,98860.39
2022-11-05T11:33:38.910Z,98855.79
2022-11-05T11:36:13.721Z,98856.16
2022-11-05T11:38:45.751Z,98854.92
2022-11-05T11:41:29.163Z,98856.48
2022-11-05T11:44:07.754Z,98859.62
2022-11-05T11:46:40.322Z,98857.90
2022-11-05T11:49:34.042Z,98860.31
2022-11-05T11:52:15.661Z,98856.57
2022-11-05T11:54:47.548Z,98861.77
2022-11-05T11:57:25.596Z,98861.85
2022-11-05T12:00:09.137Z,98861.85
2022-11-05T12:03:01.604Z,98861.86
2022-11-05T12:05:41.966Z,98859.25
2022-11-05T12:08:31.776Z,98855.21
2022-11-05T12:11:09.451Z,98858.37
2022-11-05T12:13:58.116Z,98859.74
2022-11-05T12:16:46.356Z,98863.86
2022-11-05T12:19:32.579Z,98862.67
2022-11-05T12:22:17.983Z,98860.53
2022-11-05T12:25:03.310Z,98856.58
2022-11-05T12:27:49.232Z,98862.84
2022-11-05T12:30:23.759Z,98863.77
2022-11-05T12:33:24.286Z,98865.91
2022-11-05T12:36:09.962Z,98870.12
2022-11-05T12:39:00.681Z,98868.08
2022-11-05T12:41:39.269Z,98873.88
2022-11-05T12:44:33.192Z,98876.12
2022-11-05T12:47:16.386Z,98876.30
2022-11-05T12:50:01.114Z,98878.60
2022-11-05T12:53:13.789Z,98876.69
2022-11-05T12:55:49.670Z,98877.27
2022-11-05T12:58:28.231Z,98875.51
2022-11-05T13:01:04.052Z,98879.67
2022-11-05T13:03:43.593Z,98881.76
2022-11-05T13:06:18.315Z,98882.80
2022-11-05T13:08:59.317Z,98884.80
2022-11-05T13:11:36.038Z,98886.09
2022-11-05T13:14:14.709Z,98888.23
2022-11-05T13:16:50.597Z,98888.06
2022-11-05T13:19:25.966Z,98888.63
2022-11-05T13:22:08.032Z,98890.77
2022-11-05T13:24:48.538Z,98891.81
2022-11-05T13:27:46.037Z,98890.93
2022-11-05T13:30:21.138Z,98895.31
2022-11-05T13:32:59.720Z,98898.43
2022-11-05T13:35:37.005Z,98896.67
2022-11-05T13:38:33.601Z,98898.23
2022-11-05T13:41:20.130Z,98900.46
2022-11-05T13:44:06.365Z,98902.25
2022-11-05T13:46:52.376Z,98913.80
2022-11-05T13:50:03.506Z,98917.13
2022-11-05T13:52:56.986Z,98922.56
2022-11-05T13:55:53.588Z,98928.70
2022-11-05T13:58:58.798Z,98931.99
2022-11-05T14:01:46.429Z,98938.14
2022-11-05T14:04:32.924Z,98941.56
2022-11-05T14:07:14.216Z,98948.31
2022-11-05T14:09:47.509Z,98950.48
2022-11-05T14:12:25.840Z,98950.23
2022-11-05T14:15:00.953Z,98954.48
2022-11-05T14:17:55.487Z,98953.44
2022-11-05T14:20:57.215Z,98959.23
2022-11-05T14:23:42.373Z,98966.46
2022-11-05T14:26:25.851Z,98967.53
2022-11-05T14:29:25.926Z,98969.81
2022-11-05T14:32:09.329Z,98972.27
2022-11-05T14:34:56.275Z,98977.90
2022-11-05T14:37:34.492Z,98978.27
2022-11-05T14:40:31.684Z,98980.04
2022-11-05T14:43:06.027Z,98983.95
2022-11-05T14:45:41.110Z,98984.15
2022-11-05T14:48:31.915Z,98987.65
2022-11-05T14:51:17.398Z,98986.27
2022-11-05T14:53:50.033Z,98989.94
2022-11-05T14:56:22.122Z,98991.35
2022-11-05T14:59:32.190Z,98991.02
2022-11-05T15:02:10.353Z,98997.49
2022-11-05T15:04:45.516Z,98999.60
2022-11-05T15:07:36.199Z,99000.82
2022-11-05T15:10:13.478Z,99003.29
2022-11-05T15:12:48.886Z,99004.33
2022-11-05T15:15:24.788Z,99002.24
2022-11-05T15:18:05.593Z,98999.44
2022-11-05T15:20:42.706Z,99003.09
2022-11-05T15:23:18.633Z,99007.27
2022-11-05T15:26:03.466Z,99011.10
2022-11-05T15:28:38.793Z,99015.45
2022-11-05T15:31:27.211Z,99017.33
2022-11-05T15:34:17.839Z,99023.08
2022-11-05T15:36:55.930Z,99019.93
2022-11-05T15:39:39.374Z,99023.14
2022-11-05T15:42:16.354Z,99027.37
2022-11-05T15:44:50.614Z,99029.16
2022-11-05T15:47:24.988Z,99029.73
2022-11-05T15:49:58.430Z,99032.71
2022-11-05T15:52:37.258Z,99035.52
2022-11-05T15:55:22.756Z,99036.38
2022-11-05T15:58:04.337Z,99039.20
2022-11-05T16:00:38.257Z,99041.97
2022-11-05T16:03:19.762Z,99040.20
2022-11-05T16:05:51.620Z,99043.52
2022-11-05T16:08:26.594Z,99041.02
2022-11-05T16:11:00.402Z,99045.55
2022-11-05T16:13:35.439Z,99044.30
2022-11-05T16:16:23.800Z,99046.02
2022-11-05T16:18:55.606Z,99046.98
2022-11-05T16:21:27.381Z,99047.19
2022-11-05T16:24:01.341Z,99043.38
2022-11-05T16:29:34.413Z,99050.20
2022-11-05T16:32:18.516Z,99056.83
2022-11-05T16:34:52.464Z,99058.59
2022-11-05T16:37:30.367Z,99060.46
2022-11-05T16:40:03.729Z,99063.73
2022-11-05T16:42:42.783Z,99065.23
2022-11-05T16:45:16.592Z,99070.27
2022-11-05T16:47:49.015Z,99072.02
2022-11-05T16:50:27.005Z,99071.86
2022-11-05T16:52:58.917Z,99072.90
2022-11-05T16:55:32.816Z,99073.95
2022-11-05T16:58:05.049Z,99073.79
2022-11-05T17:00:36.893Z,99075.43
2022-11-05T17:03:08.774Z,99077.89
2022-11-05T17:05:40.580Z,99080.91
2022-11-05T17:08:12.687Z,99081.79
2022-11-05T17:10:44.813Z,99084.06
2022-11-05T17:13:18.587Z,99088.11
2022-11-05T17:15:51.695Z,99087.96
2022-11-05T17:18:23.870Z,99090.62
2022-11-05T17:20:57.479Z,99096.42
2022-11-05T17:23:30.095Z,99100.80
2022-11-05T17:26:06.644Z,99103.44
2022-11-05T17:28:38.937Z,99103.95
2022-11-05T17:31:13.371Z,99106.41
2022-11-05T17:33:45.539Z,99102.55
2022-11-05T17:36:17.940Z,99103.58
2022-11-05T17:38:49.690Z,99103.58
2022-11-05T17:41:23.546Z,99100.10
2022-11-05T17:43:57.613Z,99102.39
2022-11-05T17:46:29.461Z,99105.38
2022-11-05T17:49:01.178Z,99109.08
2022-11-05T17:51:34.675Z,99110.28
2022-11-05T17:54:07.629Z,99114.48
2022-11-05T17:56:44.736Z,99123.91
2022-11-05T17:59:16.784Z,99124.41
2022-11-05T18:01:48.700Z,99124.02
2022-11-05T18:04:20.520Z,99126.45
2022-11-05T18:06:52.317Z,99128.39
2022-11-05T18:09:24.093Z,99126.43
2022-11-05T18:11:56.252Z,99129.75
2022-11-05T18:14:28.109Z,99130.28
2022-11-05T18:17:00.408Z,99132.58
2022-11-05T18:19:32.437Z,99132.58
2022-11-05T18:22:04.224Z,99129.92
2022-11-05T18:24:36.750Z,99125.36
2022-11-05T18:27:08.521Z,99125.70
2022-11-05T18:29:40.536Z,99129.70
2022-11-05T18:32:12.616Z,99136.70
2022-11-05T18:34:44.635Z,99141.77
2022-11-05T18:37:16.465Z,99141.09
2022-11-05T18:39:51.358Z,99143.58
2022-11-05T18:42:23.487Z,99147.65
2022-11-05T18:44:55.280Z,99153.43
2022-11-05T18:47:27.099Z,99156.42
2022-11-05T18:49:58.948Z,99155.75
2022-11-05T18:52:34.083Z,99158.08
2022-11-05T18:55:06.469Z,99161.39
2022-11-05T18:57:39.262Z,99168.05
2022-11-05T19:00:13.187Z,99166.83
2022-11-05T19:02:45.183Z,99167.88
2022-11-05T19:05:32.686Z,99167.19
2022-11-05T19:08:04.955Z,99163.50
2022-11-05T19:10:36.701Z,99168.23
2022-11-05T19:13:08.423Z,99167.35
2022-11-05T19:15:44.340Z,99172.79
2022-11-05T19:18:16.168Z,99176.81
2022-11-05T19:20:47.971Z,99177.35
2022-11-05T19:23:19.841Z,99178.21
2022-11-05T19:25:51.689Z,99179.12
2022-11-05T19:28:23.579Z,99182.46
2022-11-05T19:30:55.325Z,99185.13
2022-11-05T19:33:27.107Z,99186.36
2022-11-05T19:35:59.770Z,99186.53
2022-11-05T19:38:31.646Z,99188.11
2022-11-05T19:41:08.076Z,99191.95
2022-11-05T19:43:41.314Z,99191.78
2022-11-05T19:46:15.379Z,99197.40
2022-11-05T19:48:47.779Z,99197.05
2022-11-05T19:51:22.453Z,99196.02
2022-11-05T19:53:55.425Z,99199.52
2022-11-05T19:56:29.741Z,99202.85
2022-11-05T19:59:03.166Z,99205.82
2022-11-05T20:01:35.709Z,99207.77
2022-11-05T20:04:08.071Z,99209.68
2022-11-05T20:06:40.825Z,99216.88
2022-11-05T20:09:21.661Z,99217.58
2022-11-05T20:11:56.604Z,99220.03
2022-11-05T20:14:29.897Z,99222.34
2022-11-05T20:17:02.482Z,99226.04
2022-11-05T20:19:35.455Z,99230.06
2022-11-05T20:22:07.264Z,99233.22
2022-11-05T20:24:41.224Z,99235.67
2022-11-05T20:27:13.055Z,99241.81
2022-11-05T20:29:44.932Z,99245.13
2022-11-05T20:32:16.760Z,99250.73
2022-11-05T20:34:50.425Z,99253.73
2022-11-05T20:37:22.266Z,99259.34
2022-11-05T20:39:54.281Z,99259.52
2022-11-05T20:42:26.171Z,99260.57
2022-11-05T20:44:59.092Z,99263.20
2022-11-05T20:47:31.676Z,99260.92
2022-11-05T20:50:04.547Z,99262.48
2022-11-05T20:52:36.830Z,99271.60
2022-11-05T20:55:10.191Z,99272.30
2022-11-05T20:57:42.054Z,99275.98
2022-11-05T21:00:16.032Z,99284.58
2022-11-05T21:02:47.914Z,99284.92
2022-11-05T21:05:20.289Z,99280.88
2022-11-05T21:07:52.444Z,99281.58
2022-11-05T21:10:24.491Z,99278.42
2022-11-05T21:12:56.524Z,99283.52
2022-11-05T21:15:28.310Z,99285.63
2022-11-05T21:18:00.426Z,99295.10
2022-11-05T21:20:32.359Z,99297.05
2022-11-05T21:23:04.094Z,99298.64
2022-11-05T21:25:38.172Z,99304.42
2022-11-05T21:28:11.023Z,99307.23
2022-11-05T21:30:46.101Z,99308.25
2022-11-05T21:33:19.784Z,99313.34
2022-11-05T21:35:51.667Z,99317.20
2022-11-05T21:38:23.559Z,99324.89
2022-11-05T21:40:55.319Z,99324.54
2022-11-05T21:43:27.145Z,99325.61
2022-11-05T21:46:03.638Z,99324.89
2022-11-05T21:48:35.478Z,99326.29
2022-11-05T21:51:25.009Z,99324.19
2022-11-05T21:54:14.694Z,99327.15
2022-11-05T21:57:08.306Z,99319.59
2022-11-05T21:59:52.316Z,99327.50
2022-11-05T22:02:28.575Z,99328.39
2022-11-05T22:05:02.270Z,99331.89
2022-11-05T22:07:36.621Z,99329.27
2022-11-05T22:10:16.395Z,99326.81
2022-11-05T22:12:50.916Z,99328.91
2022-11-05T22:15:23.379Z,99330.33
2022-11-05T22:17:55.155Z,99331.41
2022-11-05T22:20:26.932Z,99332.80
2022-11-05T22:22:58.827Z,99336.11
2022-11-05T22:25:30.616Z,99338.56
2022-11-05T22:28:02.458Z,99340.98
2022-11-05T22:30:36.753Z,99346.23
2022-11-05T22:33:09.050Z,99348.35
2022-11-05T22:35:42.675Z,99348.71
2022-11-05T22:38:14.711Z,99351.01
2022-11-05T22:40:46.736Z,99348.39
2022-11-05T22:43:18.469Z,99348.75
2022-11-05T22:45:52.581Z,99349.29
2022-11-05T22:48:24.530Z,99354.56
2022-11-05T22:50:56.334Z,99356.46
2022-11-05T22:53:28.114Z,99357.37
2022-11-05T22:55:59.884Z,99358.08
2022-11-05T22:58:32.070Z,99358.76
2022-11-05T23:01:05.541Z,99359.48
2022-11-05T23:03:37.682Z,99359.45
2022-11-05T23:06:36.211Z,99353.86
2022-11-05T23:09:30.531Z,99352.10
2022-11-05T23:12:02.861Z,99356.12
2022-11-05T23:14:35.593Z,99360.17
2022-11-05T23:17:30.046Z,99362.98
2022-11-05T23:20:24.740Z,99365.10
2022-11-05T23:23:13.819Z,99367.02
2022-11-05T23:25:46.037Z,99363.52
2022-11-05T23:28:21.686Z,99369.83
2022-11-05T23:31:07.453Z,99370.73
2022-11-05T23:33:39.309Z,99377.58
2022-11-05T23:36:43.559Z,99377.05
2022-11-05T23:39:15.440Z,99377.40
2022-11-05T23:42:19.272Z,99377.91
2022-11-05T23:45:13.124Z,99370.75
2022-11-05T23:48:04.433Z,99368.11
2022-11-05T23:50:39.813Z,99370.38
2022-11-05T23:53:11.983Z,99373.00
2022-11-05T23:55:44.491Z,99379.14
2022-11-05T23:58:16.979Z,99381.77
